createdAt,value
2022-12-25T00:01:32.570Z,9.43
2022-12-25T00:03:59.856Z,10.45
2022-12-25T00:06:27.659Z,10.55
2022-12-25T00:08:54.989Z,9.73
2022-12-25T00:11:22.568Z,10.57
2022-12-25T00:13:52.108Z,10.32
2022-12-25T00:16:25.597Z,13.00
2022-12-25T00:18:54.242Z,36.55
2022-12-25T00:21:22.317Z,47.42
2022-12-25T00:23:54.854Z,61.92
2022-12-25T00:26:22.608Z,76.40
2022-12-25T00:29:01.304Z,41.95
2022-12-25T00:31:28.944Z,43.78
2022-12-25T00:33:57.528Z,36.17
2022-12-25T00:36:24.944Z,32.83
2022-12-25T00:38:52.680Z,32.10
2022-12-25T00:41:50.053Z,44.15
2022-12-25T00:44:17.495Z,50.50
2022-12-25T00:46:45.791Z,47.40
2022-12-25T00:49:13.961Z,42.60
2022-12-25T00:51:41.585Z,45.42
2022-12-25T00:54:09.532Z,47.00
2022-12-25T00:56:36.825Z,36.85
2022-12-25T00:59:04.485Z,34.08
2022-12-25T01:01:33.201Z,31.15
2022-12-25T01:04:01.099Z,27.65
2022-12-25T01:06:29.095Z,18.98
2022-12-25T01:09:15.377Z,19.50
2022-12-25T01:11:42.625Z,18.23
2022-12-25T01:14:10.844Z,20.70
2022-12-25T01:16:38.716Z,17.52
2022-12-25T01:19:06.172Z,17.60
2022-12-25T01:21:33.745Z,21.70
2022-12-25T01:24:01.035Z,16.45
2022-12-25T01:26:29.082Z,14.68
2022-12-25T01:28:56.694Z,28.20
2022-12-25T01:31:25.197Z,25.35
2022-12-25T01:33:53.315Z,22.98
2022-12-25T01:36:23.543Z,18.98
2022-12-25T01:38:51.864Z,15.23
2022-12-25T01:41:21.269Z,14.95
2022-12-25T01:44:12.840Z,11.63
2022-12-25T01:46:40.601Z,10.90
2022-12-25T01:49:16.341Z,11.15
2022-12-25T01:51:57.243Z,9.60
2022-12-25T01:54:30.135Z,10.38
2022-12-25T01:57:01.417Z,12.02
2022-12-25T01:59:30.129Z,10.35
2022-12-25T02:01:58.525Z,12.68
2022-12-25T02:04:39.316Z,13.52
2022-12-25T02:07:23.316Z,12.30
2022-12-25T02:09:51.757Z,12.38
2022-12-25T02:12:23.605Z,11.68
2022-12-25T02:14:55.386Z,9.52
2022-12-25T02:18:06.612Z,8.80
2022-12-25T02:20:41.992Z,8.60
2022-12-25T02:23:39.864Z,8.23
2022-12-25T02:26:33.839Z,8.02
2022-12-25T02:32:02.871Z,7.22
2022-12-25T02:34:44.878Z,7.68
2022-12-25T02:37:18.351Z,7.55
2022-12-25T02:40:04.831Z,7.15
2022-12-25T02:43:22.739Z,7.03
2022-12-25T02:46:18.800Z,6.97
2022-12-25T02:49:26.583Z,6.57
2022-12-25T02:52:18.800Z,6.25
2022-12-25T02:55:12.614Z,5.82
2022-12-25T02:58:07.630Z,6.10
2022-12-25T03:00:58.362Z,5.88
2022-12-25T03:03:49.826Z,5.32
2022-12-25T03:06:39.114Z,5.88
2022-12-25T03:09:28.542Z,6.70
2022-12-25T03:12:09.051Z,5.45
2022-12-25T03:14:58.165Z,6.20
2022-12-25T03:17:25.852Z,6.15
2022-12-25T03:20:11.993Z,5.72
2022-12-25T03:23:01.170Z,5.32
2022-12-25T03:25:48.474Z,6.07
2022-12-25T03:28:15.799Z,5.75
2022-12-25T03:31:18.739Z,6.35
2022-12-25T03:34:11.785Z,5.80
2022-12-25T03:37:15.863Z,7.15
2022-12-25T03:39:55.743Z,8.75
2022-12-25T03:42:50.278Z,10.30
2022-12-25T03:45:53.883Z,8.48
2022-12-25T03:48:42.883Z,6.65
2022-12-25T03:51:33.639Z,5.82
2022-12-25T03:54:24.054Z,6.00
2022-12-25T03:57:10.737Z,5.97
2022-12-25T03:59:56.679Z,6.53
2022-12-25T04:02:42.748Z,5.55
2022-12-25T04:05:28.772Z,6.90
2022-12-25T04:08:14.859Z,8.63
2022-12-25T04:11:00.522Z,8.75
2022-12-25T04:13:46.492Z,7.25
2022-12-25T04:16:32.426Z,6.57
2022-12-25T04:19:31.970Z,5.95
2022-12-25T04:22:18.017Z,8.77
2022-12-25T04:25:03.981Z,12.93
2022-12-25T04:27:49.997Z,11.30
2022-12-25T04:30:36.922Z,9.88
2022-12-25T04:33:22.765Z,9.02
2022-12-25T04:36:09.325Z,7.35
2022-12-25T04:38:38.234Z,7.13
2022-12-25T04:41:06.655Z,6.88
2022-12-25T04:43:33.854Z,7.03
2022-12-25T04:46:04.880Z,6.38
2022-12-25T04:48:34.780Z,6.35
2022-12-25T04:51:20.895Z,5.13
2022-12-25T04:53:49.694Z,5.40
2022-12-25T04:56:17.382Z,5.43
2022-12-25T04:58:45.229Z,5.85
2022-12-25T05:01:13.686Z,4.95
2022-12-25T05:03:41.733Z,5.28
2022-12-25T05:06:10.915Z,5.28
2022-12-25T05:08:38.042Z,4.95
2022-12-25T05:11:10.473Z,4.60
2022-12-25T05:13:38.956Z,5.30
2022-12-25T05:16:12.957Z,4.50
2022-12-25T05:18:40.567Z,5.00
2022-12-25T05:21:08.309Z,4.65
2022-12-25T05:23:36.075Z,4.97
2022-12-25T05:26:07.487Z,4.43
2022-12-25T05:28:36.889Z,5.63
2022-12-25T05:31:04.523Z,4.97
2022-12-25T05:33:32.371Z,5.43
2022-12-25T05:36:04.414Z,4.88
2022-12-25T05:38:32.296Z,4.55
2022-12-25T05:40:59.765Z,4.57
2022-12-25T05:43:28.352Z,4.80
2022-12-25T05:46:07.970Z,4.53
2022-12-25T05:48:38.512Z,4.40
2022-12-25T05:51:14.443Z,4.72
2022-12-25T05:53:43.508Z,4.78
2022-12-25T05:56:11.525Z,4.50
2022-12-25T05:58:40.065Z,4.40
2022-12-25T06:01:15.716Z,4.93
2022-12-25T06:03:43.164Z,4.63
2022-12-25T06:06:11.210Z,5.22
2022-12-25T06:08:38.682Z,4.68
2022-12-25T06:11:07.632Z,4.90
2022-12-25T06:13:36.010Z,5.03
2022-12-25T06:16:08.531Z,4.63
2022-12-25T06:18:42.441Z,5.30
2022-12-25T06:21:11.573Z,5.15
2022-12-25T06:23:39.786Z,5.07
2022-12-25T06:26:09.616Z,5.13
2022-12-25T06:28:37.604Z,5.07
2022-12-25T06:31:18.222Z,4.93
2022-12-25T06:33:46.105Z,4.63
2022-12-25T06:36:17.074Z,5.45
2022-12-25T06:38:44.354Z,5.70
2022-12-25T06:41:17.372Z,5.60
2022-12-25T06:43:48.947Z,5.55
2022-12-25T06:46:16.703Z,5.55
2022-12-25T06:48:51.060Z,5.47
2022-12-25T06:51:30.514Z,4.93
2022-12-25T06:53:58.902Z,5.63
2022-12-25T06:56:29.532Z,5.38
2022-12-25T06:59:02.665Z,5.93
2022-12-25T07:01:33.539Z,5.50
2022-12-25T07:04:04.703Z,5.50
2022-12-25T07:09:35.081Z,6.20
2022-12-25T07:12:21.049Z,5.45
2022-12-25T07:14:51.313Z,5.00
2022-12-25T07:17:21.492Z,5.22
2022-12-25T07:19:50.230Z,5.40
2022-12-25T07:22:18.556Z,5.82
2022-12-25T07:24:47.295Z,5.13
2022-12-25T07:27:19.554Z,5.05
2022-12-25T07:29:48.067Z,5.13
2022-12-25T07:32:49.872Z,4.97
2022-12-25T07:35:18.881Z,9.20
2022-12-25T07:37:47.357Z,13.50
2022-12-25T07:40:15.991Z,11.18
2022-12-25T07:42:45.411Z,9.63
2022-12-25T07:45:13.218Z,11.10
2022-12-25T07:47:40.949Z,10.65
2022-12-25T07:50:08.664Z,11.25
2022-12-25T07:52:43.092Z,9.88
2022-12-25T07:55:12.035Z,8.60
2022-12-25T07:57:40.931Z,7.63
2022-12-25T08:00:10.043Z,7.53
2022-12-25T08:02:40.839Z,12.02
2022-12-25T08:05:08.930Z,9.00
2022-12-25T08:07:36.508Z,7.18
2022-12-25T08:10:04.444Z,18.17
2022-12-25T08:12:31.788Z,27.40
2022-12-25T08:14:59.138Z,29.05
2022-12-25T08:17:26.518Z,39.17
2022-12-25T08:19:53.869Z,42.08
2022-12-25T08:22:21.141Z,40.78
2022-12-25T08:24:48.642Z,38.05
2022-12-25T08:27:16.035Z,42.67
2022-12-25T08:29:45.090Z,39.33
2022-12-25T08:32:12.384Z,32.83
2022-12-25T08:34:40.083Z,32.88
2022-12-25T08:37:07.402Z,25.40
2022-12-25T08:39:34.539Z,27.15
2022-12-25T08:42:08.225Z,23.65
2022-12-25T08:44:35.672Z,25.52
2022-12-25T08:47:03.017Z,24.00
2022-12-25T08:49:30.367Z,23.55
2022-12-25T08:51:58.045Z,22.08
2022-12-25T08:54:25.528Z,30.55
2022-12-25T08:56:57.277Z,43.35
2022-12-25T08:59:29.489Z,30.98
2022-12-25T09:01:56.823Z,15.75
2022-12-25T09:04:26.739Z,12.07
2022-12-25T09:06:54.063Z,15.07
2022-12-25T09:09:21.523Z,16.58
2022-12-25T09:11:49.522Z,19.83
2022-12-25T09:14:16.706Z,21.92
2022-12-25T09:16:44.281Z,17.40
2022-12-25T09:19:12.062Z,17.10
2022-12-25T09:21:39.282Z,12.73
2022-12-25T09:24:06.857Z,13.80
2022-12-25T09:26:34.272Z,18.33
2022-12-25T09:29:01.544Z,21.17
2022-12-25T09:31:29.266Z,29.00
2022-12-25T09:33:58.397Z,23.13
2022-12-25T09:36:26.177Z,25.33
2022-12-25T09:38:54.123Z,27.55
2022-12-25T09:41:46.285Z,23.83
2022-12-25T09:44:24.312Z,17.83
2022-12-25T09:46:56.313Z,15.93
2022-12-25T09:49:32.062Z,12.73
2022-12-25T09:52:06.299Z,12.68
2022-12-25T09:55:00.799Z,14.70
2022-12-25T09:57:28.394Z,16.15
2022-12-25T09:59:56.426Z,14.73
2022-12-25T10:02:36.741Z,9.45
2022-12-25T10:05:29.583Z,8.52
2022-12-25T10:08:25.357Z,9.27
2022-12-25T10:11:11.902Z,6.60
2022-12-25T10:13:42.355Z,6.75
2022-12-25T10:16:34.649Z,8.57
2022-12-25T10:19:11.802Z,11.85
2022-12-25T10:21:39.508Z,12.10
2022-12-25T10:24:32.585Z,13.38
2022-12-25T10:27:05.500Z,18.58
2022-12-25T10:29:35.177Z,14.13
2022-12-25T10:32:02.834Z,13.15
2022-12-25T10:34:30.723Z,11.65
2022-12-25T10:36:59.798Z,5.55
2022-12-25T10:39:27.220Z,5.30
2022-12-25T10:42:06.353Z,12.65
2022-12-25T10:44:39.355Z,12.45
2022-12-25T10:47:09.022Z,9.25
2022-12-25T10:49:39.867Z,10.35
2022-12-25T10:52:23.280Z,7.55
2022-12-25T10:57:25.543Z,10.27
2022-12-25T10:59:57.060Z,25.63
2022-12-25T11:02:31.053Z,38.20
2022-12-25T11:05:08.104Z,21.92
2022-12-25T11:07:51.781Z,7.50
2022-12-25T11:13:30.924Z,13.45
2022-12-25T11:16:03.165Z,16.73
2022-12-25T11:18:45.065Z,11.95
2022-12-25T11:21:23.508Z,16.58
2022-12-25T11:24:18.303Z,15.98
2022-12-25T11:26:55.711Z,6.50
2022-12-25T11:29:25.399Z,7.60
2022-12-25T11:31:56.235Z,6.28
2022-12-25T11:34:38.713Z,7.00
2022-12-25T11:37:13.523Z,11.90
2022-12-25T11:39:42.278Z,5.75
2022-12-25T11:42:50.345Z,8.77
2022-12-25T11:45:21.248Z,5.72
2022-12-25T11:48:00.532Z,6.65
2022-12-25T11:50:32.804Z,3.60
2022-12-25T11:53:07.382Z,3.47
2022-12-25T11:55:43.126Z,9.23
2022-12-25T11:58:36.855Z,8.20
2022-12-25T12:01:16.032Z,4.90
2022-12-25T12:03:44.895Z,3.47
2022-12-25T12:06:26.160Z,3.20
2022-12-25T12:09:03.244Z,3.47
2022-12-25T12:11:48.268Z,3.05
2022-12-25T12:14:35.556Z,3.67
2022-12-25T12:17:13.377Z,3.28
2022-12-25T12:19:42.846Z,3.78
2022-12-25T12:22:23.966Z,3.50
2022-12-25T12:24:59.072Z,3.15
2022-12-25T12:27:39.669Z,3.33
2022-12-25T12:30:21.869Z,3.28
2022-12-25T12:32:53.798Z,3.38
2022-12-25T12:35:27.226Z,3.60
2022-12-25T12:38:01.176Z,4.22
2022-12-25T12:40:50.565Z,3.63
2022-12-25T12:43:39.471Z,3.30
2022-12-25T12:46:36.400Z,3.45
2022-12-25T12:49:11.220Z,3.22
2022-12-25T12:51:39.267Z,4.20
2022-12-25T12:54:21.258Z,3.55
2022-12-25T12:57:06.365Z,3.33
2022-12-25T12:59:46.480Z,3.58
2022-12-25T13:02:51.218Z,3.70
2022-12-25T13:05:50.892Z,3.88
2022-12-25T13:08:55.669Z,3.50
2022-12-25T13:11:31.981Z,3.45
2022-12-25T13:14:02.956Z,3.60
2022-12-25T13:16:38.024Z,3.60
2022-12-25T13:19:08.547Z,3.97
2022-12-25T13:21:36.525Z,3.95
2022-12-25T13:24:10.877Z,3.88
2022-12-25T13:26:39.952Z,3.30
2022-12-25T13:29:11.447Z,4.15
2022-12-25T13:31:41.146Z,3.80
2022-12-25T13:34:17.668Z,3.85
2022-12-25T13:36:44.965Z,3.33
2022-12-25T13:39:17.260Z,4.30
2022-12-25T13:42:05.864Z,3.90
2022-12-25T13:44:53.193Z,3.90
2022-12-25T13:47:32.951Z,3.55
2022-12-25T13:50:13.620Z,3.92
2022-12-25T13:52:41.088Z,3.90
2022-12-25T13:55:19.382Z,4.22
2022-12-25T13:57:48.312Z,4.35
2022-12-25T14:00:30.508Z,4.55
2022-12-25T14:02:59.292Z,4.22
2022-12-25T14:05:39.773Z,4.00
2022-12-25T14:08:21.093Z,5.13
2022-12-25T14:10:51.450Z,4.53
2022-12-25T14:13:21.428Z,4.65
2022-12-25T14:15:49.969Z,4.53
2022-12-25T14:18:19.232Z,4.38
2022-12-25T14:21:02.695Z,4.38
2022-12-25T14:26:19.820Z,4.93
2022-12-25T14:28:53.950Z,4.38
2022-12-25T14:31:22.284Z,4.63
2022-12-25T14:33:51.883Z,4.72
2022-12-25T14:36:19.690Z,5.05
2022-12-25T14:38:57.565Z,5.03
2022-12-25T14:41:38.471Z,4.88
2022-12-25T14:44:30.612Z,4.60
2022-12-25T14:47:18.939Z,4.72
2022-12-25T14:49:48.017Z,4.60
2022-12-25T14:52:30.666Z,4.70
2022-12-25T14:55:05.661Z,5.03
2022-12-25T14:57:38.085Z,4.82
2022-12-25T15:00:12.951Z,5.33
2022-12-25T15:02:46.224Z,4.47
2022-12-25T15:05:30.308Z,5.60
2022-12-25T15:08:09.498Z,5.38
2022-12-25T15:13:26.858Z,4.95
2022-12-25T15:16:09.325Z,4.97
2022-12-25T15:18:45.604Z,4.85
2022-12-25T15:21:19.389Z,5.00
2022-12-25T15:23:47.146Z,5.05
2022-12-25T15:26:15.568Z,5.00
2022-12-25T15:28:43.421Z,5.10
2022-12-25T15:31:39.356Z,5.10
2022-12-25T15:34:20.806Z,5.28
2022-12-25T15:36:54.505Z,4.93
2022-12-25T15:39:22.233Z,5.18
2022-12-25T15:42:08.828Z,4.63
2022-12-25T15:44:36.291Z,5.00
2022-12-25T15:47:04.004Z,5.68
2022-12-25T15:49:31.405Z,5.30
2022-12-25T15:51:58.927Z,5.35
2022-12-25T15:54:26.197Z,5.43
2022-12-25T15:56:56.621Z,5.50
2022-12-25T15:59:24.474Z,5.68
2022-12-25T16:01:57.350Z,5.38
2022-12-25T16:04:26.209Z,5.15
2022-12-25T16:06:54.988Z,5.57
2022-12-25T16:09:22.918Z,5.18
2022-12-25T16:11:54.203Z,5.45
2022-12-25T16:14:22.733Z,5.40
2022-12-25T16:16:50.332Z,5.03
2022-12-25T16:19:17.812Z,5.70
2022-12-25T16:21:47.003Z,5.40
2022-12-25T16:24:15.603Z,5.57
2022-12-25T16:26:43.668Z,5.43
2022-12-25T16:29:17.396Z,5.50
2022-12-25T16:31:45.365Z,6.03
2022-12-25T16:34:13.886Z,16.98
2022-12-25T16:36:41.679Z,25.60
2022-12-25T16:39:09.249Z,37.78
2022-12-25T16:41:36.683Z,39.30
2022-12-25T16:44:16.345Z,37.30
2022-12-25T16:46:44.187Z,54.05
2022-12-25T16:49:15.468Z,51.15
2022-12-25T16:51:43.151Z,56.47
2022-12-25T16:54:10.562Z,61.90
2022-12-25T16:56:38.650Z,67.60
2022-12-25T16:59:06.031Z,58.30
2022-12-25T17:01:33.791Z,50.42
2022-12-25T17:04:02.016Z,40.40
2022-12-25T17:06:29.651Z,22.85
2022-12-25T17:09:00.535Z,18.05
2022-12-25T17:11:32.464Z,17.95
2022-12-25T17:14:02.832Z,17.00
2022-12-25T17:16:36.088Z,12.07
2022-12-25T17:19:10.147Z,12.05
2022-12-25T17:21:38.777Z,9.95
2022-12-25T17:24:07.398Z,9.43
2022-12-25T17:26:36.013Z,10.40
2022-12-25T17:29:04.481Z,9.45
2022-12-25T17:31:32.501Z,9.73
2022-12-25T17:34:02.799Z,9.20
2022-12-25T17:36:32.170Z,9.75
2022-12-25T17:39:01.342Z,9.75
2022-12-25T17:41:30.062Z,10.27
2022-12-25T17:44:00.557Z,10.02
2022-12-25T17:46:30.674Z,9.25
2022-12-25T17:49:00.771Z,9.13
2022-12-25T17:51:32.043Z,8.95
2022-12-25T17:54:05.116Z,8.80
2022-12-25T17:56:32.847Z,10.35
2022-12-25T17:59:07.056Z,12.80
2022-12-25T18:01:37.071Z,19.77
2022-12-25T18:04:06.557Z,21.50
2022-12-25T18:06:35.752Z,27.83
2022-12-25T18:09:05.734Z,28.02
2022-12-25T18:11:33.423Z,24.70
2022-12-25T18:14:05.797Z,24.05
2022-12-25T18:16:35.704Z,20.90
2022-12-25T18:19:04.405Z,18.33
2022-12-25T18:21:32.001Z,15.38
2022-12-25T18:23:59.707Z,15.65
2022-12-25T18:26:29.079Z,14.15
2022-12-25T18:28:56.614Z,12.27
2022-12-25T18:31:26.537Z,12.10
2022-12-25T18:33:54.379Z,10.98
2022-12-25T18:36:25.590Z,11.43
2022-12-25T18:38:56.705Z,12.60
2022-12-25T18:41:24.139Z,12.73
2022-12-25T18:43:55.649Z,12.43
2022-12-25T18:46:25.664Z,11.27
2022-12-25T18:48:57.759Z,12.38
2022-12-25T18:51:29.923Z,11.25
2022-12-25T18:54:02.942Z,10.65
2022-12-25T18:56:31.931Z,10.32
2022-12-25T18:59:01.414Z,11.02
2022-12-25T19:01:32.612Z,10.60
2022-12-25T19:04:05.438Z,9.48
2022-12-25T19:06:35.816Z,11.30
2022-12-25T19:09:10.284Z,12.55
2022-12-25T19:11:46.511Z,14.55
2022-12-25T19:14:14.886Z,16.60
2022-12-25T19:16:42.392Z,18.63
2022-12-25T19:19:09.740Z,18.38
2022-12-25T19:21:38.085Z,17.55
2022-12-25T19:24:05.714Z,17.48
2022-12-25T19:26:33.079Z,16.67
2022-12-25T19:29:00.973Z,16.75
2022-12-25T19:31:29.062Z,18.25
2022-12-25T19:33:56.334Z,19.35
2022-12-25T19:36:23.788Z,22.65
2022-12-25T19:38:50.986Z,21.73
2022-12-25T19:41:19.621Z,21.73
2022-12-25T19:43:48.838Z,14.93
2022-12-25T19:46:26.224Z,11.93
2022-12-25T19:48:55.643Z,8.43
2022-12-25T19:51:29.178Z,7.60
2022-12-25T19:53:56.960Z,7.40
2022-12-25T19:56:26.182Z,8.43
2022-12-25T19:58:54.029Z,8.32
2022-12-25T20:01:23.134Z,9.82
2022-12-25T20:03:51.159Z,10.00
2022-12-25T20:06:25.428Z,10.80
2022-12-25T20:08:55.675Z,14.75
2022-12-25T20:11:26.306Z,19.25
2022-12-25T20:13:54.850Z,17.55
2022-12-25T20:16:23.310Z,18.10
2022-12-25T20:18:51.151Z,17.48
2022-12-25T20:21:21.310Z,15.80
2022-12-25T20:23:50.899Z,15.55
2022-12-25T20:26:20.093Z,15.90
2022-12-25T20:28:48.518Z,15.20
2022-12-25T20:31:23.438Z,18.92
2022-12-25T20:33:51.248Z,22.40
2022-12-25T20:36:19.513Z,20.73
2022-12-25T20:38:47.859Z,19.00
2022-12-25T20:41:28.761Z,22.38
2022-12-25T20:44:02.566Z,26.55
2022-12-25T20:46:30.651Z,24.70
2022-12-25T20:48:58.109Z,24.70
2022-12-25T20:51:26.882Z,26.95
2022-12-25T20:53:55.587Z,24.77
2022-12-25T20:56:25.508Z,23.23
2022-12-25T20:59:01.867Z,21.77
2022-12-25T21:01:30.837Z,17.67
2022-12-25T21:03:59.947Z,17.92
2022-12-25T21:06:27.629Z,16.15
2022-12-25T21:08:55.696Z,17.35
2022-12-25T21:11:23.096Z,15.75
2022-12-25T21:13:50.597Z,13.75
2022-12-25T21:16:20.860Z,13.25
2022-12-25T21:18:51.027Z,13.32
2022-12-25T21:21:19.391Z,13.60
2022-12-25T21:23:47.012Z,12.27
2022-12-25T21:26:32.242Z,25.73
2022-12-25T21:29:01.329Z,30.38
2022-12-25T21:31:30.373Z,32.90
2022-12-25T21:33:58.414Z,29.30
2022-12-25T21:36:28.040Z,38.05
2022-12-25T21:39:02.127Z,38.95
2022-12-25T21:41:31.843Z,43.67
2022-12-25T21:43:59.947Z,46.65
2022-12-25T21:46:30.323Z,47.15
2022-12-25T21:48:59.403Z,44.33
2022-12-25T21:51:51.227Z,40.03
2022-12-25T21:54:21.207Z,33.20
2022-12-25T21:56:51.099Z,32.55
2022-12-25T21:59:24.022Z,27.88
2022-12-25T22:01:53.676Z,28.02
2022-12-25T22:04:24.385Z,26.02
2022-12-25T22:07:10.999Z,50.55
2022-12-25T22:09:38.589Z,36.22
2022-12-25T22:12:30.133Z,27.92
2022-12-25T22:15:07.000Z,25.30
2022-12-25T22:20:24.835Z,16.60
2022-12-25T22:22:53.359Z,14.48
2022-12-25T22:25:21.543Z,13.43
2022-12-25T22:27:49.804Z,13.10
2022-12-25T22:30:25.147Z,12.43
2022-12-25T22:32:52.628Z,11.20
2022-12-25T22:35:21.256Z,10.38
2022-12-25T22:37:50.013Z,9.82
2022-12-25T22:40:20.155Z,9.95
2022-12-25T22:42:50.340Z,9.52
2022-12-25T22:45:17.908Z,8.60
2022-12-25T22:47:47.468Z,11.05
2022-12-25T22:50:15.510Z,11.85
2022-12-25T22:52:46.179Z,11.75
2022-12-25T22:55:17.450Z,12.40
2022-12-25T22:57:45.102Z,11.77
2022-12-25T23:00:13.964Z,18.15
2022-12-25T23:02:41.499Z,17.10
2022-12-25T23:05:09.300Z,14.80
2022-12-25T23:07:36.935Z,14.63
2022-12-25T23:10:06.095Z,13.75
2022-12-25T23:12:52.005Z,12.15
2022-12-25T23:15:19.342Z,12.30
2022-12-25T23:18:05.063Z,14.98
2022-12-25T23:20:52.108Z,17.88
2022-12-25T23:23:37.661Z,16.88
2022-12-25T23:26:08.417Z,14.85
2022-12-25T23:29:00.047Z,15.73
2022-12-25T23:31:31.637Z,15.43
2022-12-25T23:33:59.886Z,14.80
2022-12-25T23:36:28.245Z,15.23
2022-12-25T23:38:55.911Z,16.33
2022-12-25T23:41:23.641Z,14.68
2022-12-25T23:43:51.484Z,12.85
2022-12-25T23:46:18.788Z,10.90
2022-12-25T23:48:46.263Z,10.95
2022-12-25T23:51:14.006Z,10.60
2022-12-25T23:53:41.296Z,10.77
2022-12-25T23:56:10.718Z,9.98
2022-12-25T23:58:38.361Z,9.85
